sensor_id;sensor_type;location;lat;lon;timestamp;pressure;altitude;pressure_sealevel;temperature;humidity
72855;BME280;60991;51.278;22.550;2022-09-03T00:00:15;99626.28;;;14.84;52.33
72855;BME280;60991;51.278;22.550;2022-09-03T00:01:56;99635.38;;;14.88;51.95
72855;BME280;60991;51.278;22.550;2022-09-03T00:03:38;99626.25;;;14.79;52.02
72855;BME280;60991;51.278;22.550;2022-09-03T00:06:51;99636.94;;;14.79;51.80
72855;BME280;60991;51.278;22.550;2022-09-03T00:09:05;99630.69;;;14.68;52.12
72855;BME280;60991;51.278;22.550;2022-09-03T00:12:20;99625.91;;;14.65;52.30
72855;BME280;60991;51.278;22.550;2022-09-03T00:13:59;99625.91;;;14.70;52.26
72855;BME280;60991;51.278;22.550;2022-09-03T00:15:36;99642.19;;;14.69;52.46
72855;BME280;60991;51.278;22.550;2022-09-03T00:17:13;99625.91;;;14.70;52.30
72855;BME280;60991;51.278;22.550;2022-09-03T00:18:48;99631.25;;;14.70;52.38
72855;BME280;60991;51.278;22.550;2022-09-03T00:20:30;99636.59;;;14.70;52.38
72855;BME280;60991;51.278;22.550;2022-09-03T00:22:24;99630.16;;;14.66;52.04
72855;BME280;60991;51.278;22.550;2022-09-03T00:23:59;99631.75;;;14.67;52.35
72855;BME280;60991;51.278;22.550;2022-09-03T00:26:15;99632.56;;;14.68;52.16
72855;BME280;60991;51.278;22.550;2022-09-03T00:27:31;99630.44;;;14.65;52.08
72855;BME280;60991;51.278;22.550;2022-09-03T00:29:06;99633.38;;;14.68;52.03
72855;BME280;60991;51.278;22.550;2022-09-03T00:30:40;99633.63;;;14.67;52.33
72855;BME280;60991;51.278;22.550;2022-09-03T00:32:33;99630.94;;;14.62;52.37
72855;BME280;60991;51.278;22.550;2022-09-03T00:34:14;99629.63;;;14.64;52.10
72855;BME280;60991;51.278;22.550;2022-09-03T00:35:50;99634.97;;;14.64;52.32
72855;BME280;60991;51.278;22.550;2022-09-03T00:37:23;99631.19;;;14.60;52.19
72855;BME280;60991;51.278;22.550;2022-09-03T00:38:53;99627.69;;;14.54;52.45
72855;BME280;60991;51.278;22.550;2022-09-03T00:46:46;99623.59;;;14.42;52.65
72855;BME280;60991;51.278;22.550;2022-09-03T00:48:25;99625.22;;;14.48;52.82
72855;BME280;60991;51.278;22.550;2022-09-03T00:51:49;99615.34;;;14.48;52.67
72855;BME280;60991;51.278;22.550;2022-09-03T01:00:38;99622.22;;;14.39;52.82
72855;BME280;60991;51.278;22.550;2022-09-03T01:02:15;99618.19;;;14.37;52.97
72855;BME280;60991;51.278;22.550;2022-09-03T01:07:08;99613.84;;;14.31;53.10
72855;BME280;60991;51.278;22.550;2022-09-03T01:08:57;99621.34;;;14.29;53.49
72855;BME280;60991;51.278;22.550;2022-09-03T01:10:45;99620.25;;;14.25;53.45
72855;BME280;60991;51.278;22.550;2022-09-03T01:30:37;99625.06;;;13.96;54.25
72855;BME280;60991;51.278;22.550;2022-09-03T01:32:26;99627.94;;;13.89;54.49
72855;BME280;60991;51.278;22.550;2022-09-03T01:34:12;99623.91;;;13.86;54.25
72855;BME280;60991;51.278;22.550;2022-09-03T01:35:56;99624.13;;;13.80;54.62
72855;BME280;60991;51.278;22.550;2022-09-03T01:40:02;99623.00;;;13.76;54.82
72855;BME280;60991;51.278;22.550;2022-09-03T01:43:36;99621.09;;;13.71;54.63
72855;BME280;60991;51.278;22.550;2022-09-03T01:47:10;99624.03;;;13.70;54.56
72855;BME280;60991;51.278;22.550;2022-09-03T01:48:51;99612.84;;;13.73;54.60
72855;BME280;60991;51.278;22.550;2022-09-03T01:52:12;99616.56;;;13.72;54.98
72855;BME280;60991;51.278;22.550;2022-09-03T02:01:40;99619.78;;;13.47;55.37
72855;BME280;60991;51.278;22.550;2022-09-03T02:03:14;99610.47;;;13.49;55.61
72855;BME280;60991;51.278;22.550;2022-09-03T02:06:28;99610.78;;;13.53;55.29
72855;BME280;60991;51.278;22.550;2022-09-03T02:08:02;99608.94;;;13.54;55.41
72855;BME280;60991;51.278;22.550;2022-09-03T02:09:33;99611.59;;;13.54;55.38
72855;BME280;60991;51.278;22.550;2022-09-03T02:11:06;99606.25;;;13.54;55.61
72855;BME280;60991;51.278;22.550;2022-09-03T02:12:38;99612.09;;;13.50;55.57
72855;BME280;60991;51.278;22.550;2022-09-03T02:14:09;99612.09;;;13.50;55.13
72855;BME280;60991;51.278;22.550;2022-09-03T02:15:42;99617.66;;;13.49;55.02
72855;BME280;60991;51.278;22.550;2022-09-03T02:17:12;99617.91;;;13.47;55.31
72855;BME280;60991;51.278;22.550;2022-09-03T02:18:45;99615.56;;;13.51;55.47
72855;BME280;60991;51.278;22.550;2022-09-03T02:20:22;99614.50;;;13.52;55.19
72855;BME280;60991;51.278;22.550;2022-09-03T02:21:55;99615.25;;;13.47;55.21
72855;BME280;60991;51.278;22.550;2022-09-03T02:23:26;99620.09;;;13.50;55.29
72855;BME280;60991;51.278;22.550;2022-09-03T02:24:57;99618.78;;;13.53;55.00
72855;BME280;60991;51.278;22.550;2022-09-03T02:26:27;99609.44;;;13.56;55.16
72855;BME280;60991;51.278;22.550;2022-09-03T02:27:58;99618.25;;;13.56;55.35
72855;BME280;60991;51.278;22.550;2022-09-03T02:29:29;99619.06;;;13.57;55.12
72855;BME280;60991;51.278;22.550;2022-09-03T02:30:59;99618.78;;;13.53;55.12
72855;BME280;60991;51.278;22.550;2022-09-03T02:32:30;99614.44;;;13.47;55.24
72855;BME280;60991;51.278;22.550;2022-09-03T02:34:01;99616.56;;;13.45;55.43
72855;BME280;60991;51.278;22.550;2022-09-03T02:35:33;99618.41;;;13.44;55.69
72855;BME280;60991;51.278;22.550;2022-09-03T02:37:12;99619.72;;;13.42;55.44
72855;BME280;60991;51.278;22.550;2022-09-03T02:38:43;99619.16;;;13.40;55.18
72855;BME280;60991;51.278;22.550;2022-09-03T02:40:14;99623.13;;;13.37;55.19
72855;BME280;60991;51.278;22.550;2022-09-03T02:41:44;99610.91;;;13.41;55.42
72855;BME280;60991;51.278;22.550;2022-09-03T02:43:23;99619.16;;;13.40;55.40
72855;BME280;60991;51.278;22.550;2022-09-03T02:45:00;99619.97;;;13.40;55.49
72855;BME280;60991;51.278;22.550;2022-09-03T02:46:50;99619.41;;;13.38;55.19
72855;BME280;60991;51.278;22.550;2022-09-03T02:48:23;99613.56;;;13.41;54.91
72855;BME280;60991;51.278;22.550;2022-09-03T02:49:53;99622.63;;;13.40;55.30
72855;BME280;60991;51.278;22.550;2022-09-03T02:51:23;99615.69;;;13.39;55.24
72855;BME280;60991;51.278;22.550;2022-09-03T02:52:54;99618.59;;;13.38;55.14
72855;BME280;60991;51.278;22.550;2022-09-03T02:54:24;99622.63;;;13.40;55.33
72855;BME280;60991;51.278;22.550;2022-09-03T02:55:59;99621.00;;;13.39;55.13
72855;BME280;60991;51.278;22.550;2022-09-03T02:57:30;99625.53;;;13.39;55.02
72855;BME280;60991;51.278;22.550;2022-09-03T02:59:01;99622.06;;;13.38;54.89
72855;BME280;60991;51.278;22.550;2022-09-03T03:00:32;99624.25;;;13.41;55.13
72855;BME280;60991;51.278;22.550;2022-09-03T03:02:03;99624.00;;;13.43;55.13
72855;BME280;60991;51.278;22.550;2022-09-03T03:03:33;99626.66;;;13.43;55.06
72855;BME280;60991;51.278;22.550;2022-09-03T03:05:04;99621.56;;;13.41;54.74
72855;BME280;60991;51.278;22.550;2022-09-03T03:06:35;99620.78;;;13.41;55.00
72855;BME280;60991;51.278;22.550;2022-09-03T03:08:05;99625.53;;;13.39;55.22
72855;BME280;60991;51.278;22.550;2022-09-03T03:09:35;99620.53;;;13.42;55.04
72855;BME280;60991;51.278;22.550;2022-09-03T03:11:06;99613.81;;;13.40;54.80
72855;BME280;60991;51.278;22.550;2022-09-03T03:12:36;99612.22;;;13.39;54.92
72855;BME280;60991;51.278;22.550;2022-09-03T03:14:06;99614.06;;;13.38;55.19
72855;BME280;60991;51.278;22.550;2022-09-03T03:15:37;99617.53;;;13.39;55.10
72855;BME280;60991;51.278;22.550;2022-09-03T03:17:07;99605.25;;;13.38;54.69
72855;BME280;60991;51.278;22.550;2022-09-03T03:18:37;99618.84;;;13.36;54.94
72855;BME280;60991;51.278;22.550;2022-09-03T03:20:08;99609.25;;;13.35;54.92
72855;BME280;60991;51.278;22.550;2022-09-03T03:21:38;99618.81;;;13.31;54.82
72855;BME280;60991;51.278;22.550;2022-09-03T03:23:09;99616.69;;;13.33;55.16
72855;BME280;60991;51.278;22.550;2022-09-03T03:24:39;99614.53;;;13.30;55.00
72855;BME280;60991;51.278;22.550;2022-09-03T03:26:15;99616.38;;;13.30;55.24
72855;BME280;60991;51.278;22.550;2022-09-03T03:27:46;99617.13;;;13.25;55.34
72855;BME280;60991;51.278;22.550;2022-09-03T03:29:16;99614.22;;;13.27;55.28
72855;BME280;60991;51.278;22.550;2022-09-03T03:30:46;99617.13;;;13.25;55.49
72855;BME280;60991;51.278;22.550;2022-09-03T03:32:17;99614.16;;;13.22;55.17
72855;BME280;60991;51.278;22.550;2022-09-03T03:33:54;99614.41;;;13.20;55.09
72855;BME280;60991;51.278;22.550;2022-09-03T03:35:25;99618.03;;;13.14;55.66
72855;BME280;60991;51.278;22.550;2022-09-03T03:36:55;99613.31;;;13.16;55.41
72855;BME280;60991;51.278;22.550;2022-09-03T03:38:25;99609.03;;;13.15;55.87
72855;BME280;60991;51.278;22.550;2022-09-03T03:39:55;99614.56;;;13.13;55.49
72855;BME280;60991;51.278;22.550;2022-09-03T03:41:28;99617.22;;;13.13;55.61
72855;BME280;60991;51.278;22.550;2022-09-03T03:42:59;99615.88;;;13.11;55.78
72855;BME280;60991;51.278;22.550;2022-09-03T03:44:29;99617.41;;;13.07;56.19
72855;BME280;60991;51.278;22.550;2022-09-03T03:45:59;99615.56;;;13.07;55.71
72855;BME280;60991;51.278;22.550;2022-09-03T03:47:30;99620.81;;;13.02;56.16
72855;BME280;60991;51.278;22.550;2022-09-03T03:49:00;99615.97;;;12.99;55.74
72855;BME280;60991;51.278;22.550;2022-09-03T03:50:31;99621.63;;;13.03;56.04
72855;BME280;60991;51.278;22.550;2022-09-03T03:52:01;99617.34;;;13.02;55.90
72855;BME280;60991;51.278;22.550;2022-09-03T03:53:36;99615.47;;;13.02;55.98
72855;BME280;60991;51.278;22.550;2022-09-03T03:55:07;99616.50;;;12.96;55.81
72855;BME280;60991;51.278;22.550;2022-09-03T03:56:38;99621.50;;;12.93;55.85
72855;BME280;60991;51.278;22.550;2022-09-03T03:58:08;99620.94;;;12.91;56.25
72855;BME280;60991;51.278;22.550;2022-09-03T03:59:38;99623.84;;;12.89;56.30
72855;BME280;60991;51.278;22.550;2022-09-03T04:01:21;99618.75;;;12.88;56.31
72855;BME280;60991;51.278;22.550;2022-09-03T04:02:51;99624.34;;;12.86;56.07
72855;BME280;60991;51.278;22.550;2022-09-03T04:04:21;99620.94;;;12.91;56.27
72855;BME280;60991;51.278;22.550;2022-09-03T04:05:56;99625.47;;;12.90;55.81
72855;BME280;60991;51.278;22.550;2022-09-03T04:07:26;99621.19;;;12.89;55.80
72855;BME280;60991;51.278;22.550;2022-09-03T04:08:57;99619.56;;;12.88;56.35
72855;BME280;60991;51.278;22.550;2022-09-03T04:10:27;99619.31;;;12.90;56.31
72855;BME280;60991;51.278;22.550;2022-09-03T04:11:57;99626.75;;;12.88;56.32
72855;BME280;60991;51.278;22.550;2022-09-03T04:13:31;99622.22;;;12.88;56.50
72855;BME280;60991;51.278;22.550;2022-09-03T04:15:01;99626.75;;;12.88;56.19
72855;BME280;60991;51.278;22.550;2022-09-03T04:16:32;99626.75;;;12.88;56.60
72855;BME280;60991;51.278;22.550;2022-09-03T04:18:02;99630.22;;;12.88;56.35
72855;BME280;60991;51.278;22.550;2022-09-03T04:19:32;99628.84;;;12.86;56.21
72855;BME280;60991;51.278;22.550;2022-09-03T04:21:05;99619.25;;;12.84;56.41
72855;BME280;60991;51.278;22.550;2022-09-03T04:22:36;99620.28;;;12.83;56.57
72855;BME280;60991;51.278;22.550;2022-09-03T04:24:06;99626.69;;;12.82;56.35
72855;BME280;60991;51.278;22.550;2022-09-03T04:25:36;99622.22;;;12.88;56.03
72855;BME280;60991;51.278;22.550;2022-09-03T04:27:06;99631.28;;;12.87;56.09
72855;BME280;60991;51.278;22.550;2022-09-03T04:28:37;99629.97;;;12.90;56.03
72855;BME280;60991;51.278;22.550;2022-09-03T04:30:08;99625.13;;;12.87;56.78
72855;BME280;60991;51.278;22.550;2022-09-03T04:31:38;99630.22;;;12.88;56.46
72855;BME280;60991;51.278;22.550;2022-09-03T04:33:09;99626.75;;;12.88;56.51
72855;BME280;60991;51.278;22.550;2022-09-03T04:34:39;99630.22;;;12.88;56.34
72855;BME280;60991;51.278;22.550;2022-09-03T04:37:42;99639.50;;;12.86;56.62
72855;BME280;60991;51.278;22.550;2022-09-03T04:39:12;99627.81;;;12.87;56.63
72855;BME280;60991;51.278;22.550;2022-09-03T04:40:43;99626.75;;;12.88;56.66
72855;BME280;60991;51.278;22.550;2022-09-03T04:42:13;99626.25;;;12.91;56.41
72855;BME280;60991;51.278;22.550;2022-09-03T04:43:43;99633.69;;;12.89;56.51
72855;BME280;60991;51.278;22.550;2022-09-03T04:45:14;99631.84;;;12.89;56.59
72855;BME280;60991;51.278;22.550;2022-09-03T04:46:44;99631.59;;;12.91;56.68
72855;BME280;60991;51.278;22.550;2022-09-03T04:48:14;99628.13;;;12.90;56.98
72855;BME280;60991;51.278;22.550;2022-09-03T04:49:45;99627.56;;;12.88;56.79
72855;BME280;60991;51.278;22.550;2022-09-03T04:51:18;99626.50;;;12.89;56.93
72855;BME280;60991;51.278;22.550;2022-09-03T04:52:49;99634.50;;;12.89;56.85
72855;BME280;60991;51.278;22.550;2022-09-03T04:54:19;99636.44;;;12.94;56.55
72855;BME280;60991;51.278;22.550;2022-09-03T04:55:49;99629.00;;;12.96;57.02
72855;BME280;60991;51.278;22.550;2022-09-03T04:57:19;99626.81;;;12.93;56.98
72855;BME280;60991;51.278;22.550;2022-09-03T04:58:57;99624.47;;;12.96;57.08
72855;BME280;60991;51.278;22.550;2022-09-03T05:00:28;99631.47;;;13.02;56.58
72855;BME280;60991;51.278;22.550;2022-09-03T05:01:58;99634.94;;;13.03;56.67
72855;BME280;60991;51.278;22.550;2022-09-03T05:03:29;99626.22;;;13.07;56.63
72855;BME280;60991;51.278;22.550;2022-09-03T05:04:59;99630.25;;;13.10;56.47
72855;BME280;60991;51.278;22.550;2022-09-03T05:06:30;99635.91;;;13.13;56.71
72855;BME280;60991;51.278;22.550;2022-09-03T05:08:00;99626.84;;;13.14;56.40
72855;BME280;60991;51.278;22.550;2022-09-03T05:09:31;99634.63;;;13.16;56.39
72855;BME280;60991;51.278;22.550;2022-09-03T05:11:06;99635.72;;;13.20;56.13
72855;BME280;60991;51.278;22.550;2022-09-03T05:12:36;99637.66;;;13.25;56.32
72855;BME280;60991;51.278;22.550;2022-09-03T05:14:06;99640.88;;;13.27;56.38
72855;BME280;60991;51.278;22.550;2022-09-03T05:15:37;99645.97;;;13.28;56.33
72855;BME280;60991;51.278;22.550;2022-09-03T05:17:07;99644.41;;;13.32;56.29
72855;BME280;60991;51.278;22.550;2022-09-03T05:18:37;99642.00;;;13.31;56.61
72855;BME280;60991;51.278;22.550;2022-09-03T05:20:08;99647.41;;;13.36;56.43
72855;BME280;60991;51.278;22.550;2022-09-03T05:21:38;99647.66;;;13.34;56.45
72855;BME280;60991;51.278;22.550;2022-09-03T05:23:09;99645.00;;;13.39;56.31
72855;BME280;60991;51.278;22.550;2022-09-03T05:24:39;99645.88;;;13.45;56.15
72855;BME280;60991;51.278;22.550;2022-09-03T05:26:12;99645.41;;;13.48;56.00
72855;BME280;60991;51.278;22.550;2022-09-03T05:27:42;99642.97;;;13.46;55.56
72855;BME280;60991;51.278;22.550;2022-09-03T05:29:13;99644.09;;;13.50;56.06
72855;BME280;60991;51.278;22.550;2022-09-03T05:30:43;99643.84;;;13.52;55.99
72855;BME280;60991;51.278;22.550;2022-09-03T05:32:13;99639.84;;;13.55;56.05
72855;BME280;60991;51.278;22.550;2022-09-03T05:33:48;99643.88;;;13.57;55.61
72855;BME280;60991;51.278;22.550;2022-09-03T05:35:19;99636.44;;;13.59;55.86
72855;BME280;60991;51.278;22.550;2022-09-03T05:36:49;99643.38;;;13.60;56.15
72855;BME280;60991;51.278;22.550;2022-09-03T05:38:20;99633.81;;;13.64;55.92
72855;BME280;60991;51.278;22.550;2022-09-03T05:39:50;99631.22;;;13.69;55.83
72855;BME280;60991;51.278;22.550;2022-09-03T05:41:21;99635.25;;;13.72;56.05
72855;BME280;60991;51.278;22.550;2022-09-03T05:42:55;99630.72;;;13.72;56.18
72855;BME280;60991;51.278;22.550;2022-09-03T05:44:25;99629.91;;;13.72;56.28
72855;BME280;60991;51.278;22.550;2022-09-03T05:46:00;99634.72;;;13.75;56.10
72855;BME280;60991;51.278;22.550;2022-09-03T05:47:31;99628.38;;;13.81;56.19
72855;BME280;60991;51.278;22.550;2022-09-03T05:49:04;99636.44;;;13.86;55.46
72855;BME280;60991;51.278;22.550;2022-09-03T05:50:34;99631.41;;;13.90;55.85
72855;BME280;60991;51.278;22.550;2022-09-03T05:52:04;99639.69;;;13.93;56.05
72855;BME280;60991;51.278;22.550;2022-09-03T05:53:37;99638.94;;;13.98;56.10
72855;BME280;60991;51.278;22.550;2022-09-03T05:55:07;99634.41;;;13.98;55.89
72855;BME280;60991;51.278;22.550;2022-09-03T05:56:38;99637.16;;;14.03;55.85
72855;BME280;60991;51.278;22.550;2022-09-03T05:58:09;99634.78;;;14.07;56.13
72855;BME280;60991;51.278;22.550;2022-09-03T05:59:39;99631.31;;;14.11;55.78
72855;BME280;60991;51.278;22.550;2022-09-03T06:01:10;99638.03;;;14.14;55.57
72855;BME280;60991;51.278;22.550;2022-09-03T06:02:41;99637.81;;;14.20;55.57
72855;BME280;60991;51.278;22.550;2022-09-03T06:04:13;99639.22;;;14.28;55.70
72855;BME280;60991;51.278;22.550;2022-09-03T06:05:53;99641.13;;;14.33;55.06
72855;BME280;60991;51.278;22.550;2022-09-03T06:07:24;99641.91;;;14.33;55.37
72855;BME280;60991;51.278;22.550;2022-09-03T06:08:55;99643.03;;;14.37;55.61
72855;BME280;60991;51.278;22.550;2022-09-03T06:10:26;99630.47;;;14.38;55.48
72855;BME280;60991;51.278;22.550;2022-09-03T06:11:56;99644.38;;;14.40;55.66
72855;BME280;60991;51.278;22.550;2022-09-03T06:13:26;99634.59;;;14.45;55.46
72855;BME280;60991;51.278;22.550;2022-09-03T06:14:57;99640.75;;;14.51;55.48
72855;BME280;60991;51.278;22.550;2022-09-03T06:16:28;99636.50;;;14.55;55.18
72855;BME280;60991;51.278;22.550;2022-09-03T06:17:59;99630.41;;;14.60;55.18
72855;BME280;60991;51.278;22.550;2022-09-03T06:19:29;99636.31;;;14.67;54.95
72855;BME280;60991;51.278;22.550;2022-09-03T06:21:02;99636.06;;;14.68;54.95
72855;BME280;60991;51.278;22.550;2022-09-03T06:22:33;99638.75;;;14.73;54.93
72855;BME280;60991;51.278;22.550;2022-09-03T06:24:03;99633.97;;;14.75;54.77
72855;BME280;60991;51.278;22.550;2022-09-03T06:25:33;99628.66;;;14.80;54.74
72855;BME280;60991;51.278;22.550;2022-09-03T06:27:04;99626.78;;;14.81;54.66
72855;BME280;60991;51.278;22.550;2022-09-03T06:28:36;99626.00;;;14.85;54.76
72855;BME280;60991;51.278;22.550;2022-09-03T06:30:07;99626.56;;;14.93;54.51
72855;BME280;60991;51.278;22.550;2022-09-03T06:31:38;99629.03;;;14.99;54.55
72855;BME280;60991;51.278;22.550;2022-09-03T06:33:08;99627.97;;;15.00;54.40
72855;BME280;60991;51.278;22.550;2022-09-03T06:34:38;99633.31;;;15.05;54.33
72855;BME280;60991;51.278;22.550;2022-09-03T06:36:11;99631.47;;;15.11;54.49
72855;BME280;60991;51.278;22.550;2022-09-03T06:37:42;99634.44;;;15.14;54.98
72855;BME280;60991;51.278;22.550;2022-09-03T06:39:12;99635.25;;;15.15;55.07
72855;BME280;60991;51.278;22.550;2022-09-03T06:40:42;99637.41;;;15.18;54.76
72855;BME280;60991;51.278;22.550;2022-09-03T06:42:12;99644.63;;;15.17;54.90
72855;BME280;60991;51.278;22.550;2022-09-03T06:43:43;99642.50;;;15.24;54.98
72855;BME280;60991;51.278;22.550;2022-09-03T06:45:13;99638.75;;;15.25;54.74
72855;BME280;60991;51.278;22.550;2022-09-03T06:46:43;99651.38;;;15.35;54.65
72855;BME280;60991;51.278;22.550;2022-09-03T06:48:14;99640.66;;;15.40;54.40
72855;BME280;60991;51.278;22.550;2022-09-03T06:49:44;99649.78;;;15.39;54.90
72855;BME280;60991;51.278;22.550;2022-09-03T06:51:17;99650.06;;;15.48;54.63
72855;BME280;60991;51.278;22.550;2022-09-03T06:52:52;99650.91;;;15.53;54.30
72855;BME280;60991;51.278;22.550;2022-09-03T06:54:22;99653.34;;;15.60;55.38
72855;BME280;60991;51.278;22.550;2022-09-03T06:55:57;99653.09;;;15.67;54.71
72855;BME280;60991;51.278;22.550;2022-09-03T06:57:28;99650.19;;;15.73;54.78
72855;BME280;60991;51.278;22.550;2022-09-03T06:58:59;99656.31;;;15.69;55.41
72855;BME280;60991;51.278;22.550;2022-09-03T07:00:32;99662.75;;;15.78;54.93
72855;BME280;60991;51.278;22.550;2022-09-03T07:02:02;99648.84;;;15.81;55.05
72855;BME280;60991;51.278;22.550;2022-09-03T07:03:36;99655.03;;;15.86;54.75
72855;BME280;60991;51.278;22.550;2022-09-03T07:05:07;99654.50;;;15.95;54.77
72855;BME280;60991;51.278;22.550;2022-09-03T07:06:39;99659.03;;;15.99;54.60
72855;BME280;60991;51.278;22.550;2022-09-03T07:08:10;99660.94;;;16.04;54.60
72855;BME280;60991;51.278;22.550;2022-09-03T07:09:40;99660.41;;;16.07;54.59
72855;BME280;60991;51.278;22.550;2022-09-03T07:11:13;99658.53;;;16.12;54.26
72855;BME280;60991;51.278;22.550;2022-09-03T07:12:44;99650.75;;;16.21;54.08
72855;BME280;60991;51.278;22.550;2022-09-03T07:14:18;99660.69;;;16.31;53.98
72855;BME280;60991;51.278;22.550;2022-09-03T07:16:00;99658.00;;;16.36;53.73
72855;BME280;60991;51.278;22.550;2022-09-03T07:17:31;99662.28;;;16.37;53.67
72855;BME280;60991;51.278;22.550;2022-09-03T07:19:02;99658.00;;;16.41;53.67
72855;BME280;60991;51.278;22.550;2022-09-03T07:20:32;99662.56;;;16.50;53.36
72855;BME280;60991;51.278;22.550;2022-09-03T07:22:03;99663.38;;;16.51;53.62
72855;BME280;60991;51.278;22.550;2022-09-03T07:23:34;99667.34;;;16.53;52.75
72855;BME280;60991;51.278;22.550;2022-09-03T07:25:04;99678.09;;;16.58;52.88
72855;BME280;60991;51.278;22.550;2022-09-03T07:26:38;99669.53;;;16.67;52.72
72855;BME280;60991;51.278;22.550;2022-09-03T07:28:08;99677.56;;;16.72;52.87
72855;BME280;60991;51.278;22.550;2022-09-03T07:29:39;99671.38;;;16.81;52.71
72855;BME280;60991;51.278;22.550;2022-09-03T07:31:12;99677.25;;;16.93;51.94
72855;BME280;60991;51.278;22.550;2022-09-03T07:32:43;99678.88;;;17.00;51.78
72855;BME280;60991;51.278;22.550;2022-09-03T07:34:13;99674.31;;;17.00;51.50
72855;BME280;60991;51.278;22.550;2022-09-03T07:35:44;99671.84;;;17.09;51.01
72855;BME280;60991;51.278;22.550;2022-09-03T07:37:15;99673.44;;;17.15;50.85
72855;BME280;60991;51.278;22.550;2022-09-03T07:38:45;99675.03;;;17.21;50.89
72855;BME280;60991;51.278;22.550;2022-09-03T07:40:15;99672.84;;;17.28;50.77
72855;BME280;60991;51.278;22.550;2022-09-03T07:41:46;99670.44;;;17.26;50.22
72855;BME280;60991;51.278;22.550;2022-09-03T07:43:17;99669.63;;;17.36;49.91
72855;BME280;60991;51.278;22.550;2022-09-03T07:44:47;99669.03;;;17.44;49.85
72855;BME280;60991;51.278;22.550;2022-09-03T07:46:19;99666.06;;;17.46;49.30
72855;BME280;60991;51.278;22.550;2022-09-03T07:47:50;99672.50;;;17.55;48.83
72855;BME280;60991;51.278;22.550;2022-09-03T07:49:21;99675.13;;;17.65;48.14
72855;BME280;60991;51.278;22.550;2022-09-03T07:50:51;99673.25;;;17.71;47.99
72855;BME280;60991;51.278;22.550;2022-09-03T07:52:21;99669.97;;;17.79;47.50
72855;BME280;60991;51.278;22.550;2022-09-03T07:53:57;99671.34;;;17.76;47.04
72855;BME280;60991;51.278;22.550;2022-09-03T07:55:27;99669.19;;;17.73;47.66
72855;BME280;60991;51.278;22.550;2022-09-03T07:56:58;99662.16;;;17.82;47.44
72855;BME280;60991;51.278;22.550;2022-09-03T07:58:29;99661.81;;;17.94;47.28
72855;BME280;60991;51.278;22.550;2022-09-03T07:59:59;99672.84;;;17.92;47.37
72855;BME280;60991;51.278;22.550;2022-09-03T08:01:31;99670.66;;;17.99;46.90
72855;BME280;60991;51.278;22.550;2022-09-03T08:03:01;99664.97;;;18.06;46.84
72855;BME280;60991;51.278;22.550;2022-09-03T08:04:32;99666.56;;;18.07;46.14
72855;BME280;60991;51.278;22.550;2022-09-03T08:06:05;99672.22;;;18.06;45.40
72855;BME280;60991;51.278;22.550;2022-09-03T08:07:35;99676.25;;;18.03;45.28
72855;BME280;60991;51.278;22.550;2022-09-03T08:09:08;99668.94;;;18.14;45.28
72855;BME280;60991;51.278;22.550;2022-09-03T08:10:39;99667.59;;;18.16;45.02
72855;BME280;60991;51.278;22.550;2022-09-03T08:12:09;99665.09;;;18.25;45.50
72855;BME280;60991;51.278;22.550;2022-09-03T08:13:44;99667.47;;;18.31;44.11
72855;BME280;60991;51.278;22.550;2022-09-03T08:15:15;99671.53;;;18.24;45.00
72855;BME280;60991;51.278;22.550;2022-09-03T08:16:46;99667.44;;;18.37;44.81
72855;BME280;60991;51.278;22.550;2022-09-03T08:18:16;99668.41;;;18.46;44.69
72855;BME280;60991;51.278;22.550;2022-09-03T08:19:46;99667.56;;;18.50;44.79
72855;BME280;60991;51.278;22.550;2022-09-03T08:21:18;99675.28;;;18.57;44.87
72855;BME280;60991;51.278;22.550;2022-09-03T08:22:48;99678.78;;;18.57;44.92
72855;BME280;60991;51.278;22.550;2022-09-03T08:24:18;99665.56;;;18.66;45.03
72855;BME280;60991;51.278;22.550;2022-09-03T08:25:59;99673.59;;;18.71;44.59
72855;BME280;60991;51.278;22.550;2022-09-03T08:27:30;99662.56;;;18.73;43.87
72855;BME280;60991;51.278;22.550;2022-09-03T08:29:01;99669.22;;;18.75;43.71
72855;BME280;60991;51.278;22.550;2022-09-03T08:30:31;99666.50;;;18.80;44.23
72855;BME280;60991;51.278;22.550;2022-09-03T08:32:03;99676.59;;;18.93;44.09
72855;BME280;60991;51.278;22.550;2022-09-03T08:33:33;99670.06;;;18.99;43.67
72855;BME280;60991;51.278;22.550;2022-09-03T08:35:06;99669.22;;;19.04;43.09
72855;BME280;60991;51.278;22.550;2022-09-03T08:36:38;99673.16;;;19.12;43.46
72855;BME280;60991;51.278;22.550;2022-09-03T08:38:08;99673.66;;;19.14;43.10
72855;BME280;60991;51.278;22.550;2022-09-03T08:39:38;99673.84;;;19.22;42.44
72855;BME280;60991;51.278;22.550;2022-09-03T08:41:18;99672.88;;;19.13;41.70
72855;BME280;60991;51.278;22.550;2022-09-03T08:43:05;99677.63;;;19.21;41.34
72855;BME280;60991;51.278;22.550;2022-09-03T08:44:57;99672.50;;;19.25;41.10
72855;BME280;60991;51.278;22.550;2022-09-03T08:48:22;99677.59;;;19.26;39.74
72855;BME280;60991;51.278;22.550;2022-09-03T08:50:06;99679.06;;;19.37;40.01
72855;BME280;60991;51.278;22.550;2022-09-03T08:51:40;99673.38;;;19.39;39.89
72855;BME280;60991;51.278;22.550;2022-09-03T08:53:20;99669.88;;;19.38;39.95
72855;BME280;60991;51.278;22.550;2022-09-03T08:55:22;99670.91;;;19.43;39.57
72855;BME280;60991;51.278;22.550;2022-09-03T08:56:50;99674.03;;;19.55;39.70
72855;BME280;60991;51.278;22.550;2022-09-03T08:58:26;99663.41;;;19.63;39.29
72855;BME280;60991;51.278;22.550;2022-09-03T08:59:57;99664.41;;;19.67;39.33
72855;BME280;60991;51.278;22.550;2022-09-03T09:03:39;99665.09;;;19.78;38.31
72855;BME280;60991;51.278;22.550;2022-09-03T09:05:13;99668.44;;;19.89;37.96
72855;BME280;60991;51.278;22.550;2022-09-03T09:06:49;99660.56;;;19.92;37.44
72855;BME280;60991;51.278;22.550;2022-09-03T09:08:37;99663.78;;;19.94;37.27